Impacts TAF Board
For situational awareness. Not to be used for flight planning purposes.
IDs:

KBWI - Baltimore-Washington, MD, US

Issued at 0523 UTC 24 Mar 2019
Updated at 0704 UTC 24 Mar 2019
Potential Impact None Slight Moderate High
Time0654Z 24/08Z 24/09Z 24/10Z 24/11Z 24/12Z 24/13Z 24/14Z 24/15Z 24/16Z 24/17Z 24/18Z 24/19Z 24/20Z>>
Type OBS PRVL PRVL PRVL PRVL PRVL PRVL PRVL PRVL PRVL PRVL PRVL PRVL PRVL
VIS 10 >6 >6 >6 >6 >6 >6 >6 >6 >6 >6 >6 >6 >6
CIG -- -- -- -- -- -- -- -- -- -- -- -- -- --
Cover CLR SKC SKC SKC SKC SKC SKC SKC SKC SCT SCT SCT SCT SCT
FltCat VFR VFR VFR VFR VFR VFR VFR VFR VFR VFR VFR VFR VFR VFR
WX -- -- -- -- -- -- -- -- -- -- -- -- -- --
WDir VRB VRB VRB VRB VRB VRB VRB VRB VRB 230 230 230 230 230
WSpd 0 3 3 3 3 3 3 3 3 8 8 8 8 8
WGst -- -- -- -- -- -- -- -- -- -- -- -- -- --
Raw TAF
KBWI 240523Z 2406/2512 VRB03KT P6SM SKC
  FM241600 23008KT P6SM FEW150 SCT250
  FM242300 19006KT P6SM BKN140 BKN250
  FM250300 VRB03KT P6SM BKN120 OVC250


Raw METAR
KBWI 240654Z 00000KT 10SM CLR 01/M07 A3025 RMK AO2 SLP242 T00061067
KBWI 240554Z 20004KT 10SM CLR 03/M07 A3024 RMK AO2 SLP240 T00331072 10083 20028 50006
KBWI 240454Z 20004KT 10SM CLR 04/M08 A3024 RMK AO2 SLP242 T00441078 401110011

METAR Board
Radar Display
Forecast Discussion
For situational awareness. Not to be used for flight planning purposes.